Time;durP1;ratioP1;P1;durP2;ratioP2;P2;SDS_P1;SDS_P2;PMS_P1;PMS_P2;Temp;Humidity;BMP_temperature;BMP_pressure;BME280_temperature;BME280_humidity;BME280_pressure;Samples;Min_cycle;Max_cycle;Signal;HPM_P1;HPM_P2
2023/09/11 00:00:19;;;;;;;0.00;0.00;;;;;;;32.47;46.64;101478.63;5043904;28;20041;-68
2023/09/11 00:02:44;;;;;;;0.00;0.00;;;;;;;32.47;46.52;101481.41;5052649;28;20811;-68
2023/09/11 00:05:10;;;;;;;0.00;0.00;;;;;;;32.43;46.99;101478.47;5053167;28;20044;-67
2023/09/11 00:07:36;;;;;;;0.00;0.00;;;;;;;32.23;47.53;101471.19;5052549;28;20040;-69
2023/09/11 00:10:01;;;;;;;0.00;0.00;;;;;;;32.58;46.65;101463.81;5051898;28;20041;-69
2023/09/11 00:12:27;;;;;;;0.00;0.00;;;;;;;32.45;47.41;101467.03;5052358;28;20055;-69
2023/09/11 00:14:52;;;;;;;0.00;0.00;;;;;;;32.37;47.21;101466.03;5052413;28;20037;-68
2023/09/11 00:17:17;;;;;;;0.00;0.00;;;;;;;32.13;47.08;101460.59;5052793;28;20385;-68
2023/09/11 00:19:43;;;;;;;0.00;0.00;;;;;;;32.41;46.85;101452.19;5052337;28;20044;-67
2023/09/11 00:22:08;;;;;;;0.00;0.00;;;;;;;32.53;46.32;101458.50;5052370;28;20469;-67
2023/09/11 00:24:33;;;;;;;0.00;0.00;;;;;;;32.43;46.70;101450.66;5052249;28;20520;-67
2023/09/11 00:26:59;;;;;;;0.00;0.00;;;;;;;32.40;47.04;101445.81;5058991;28;20029;-68
2023/09/11 00:29:24;;;;;;;0.00;0.00;;;;;;;32.56;46.65;101437.50;5052208;28;20033;-68
2023/09/11 00:31:50;;;;;;;0.00;0.00;;;;;;;32.58;46.44;101437.94;5052528;28;20024;-68
2023/09/11 00:34:15;;;;;;;0.00;0.00;;;;;;;32.52;46.55;101436.59;5052086;28;20041;-68
2023/09/11 00:36:40;;;;;;;0.00;0.00;;;;;;;32.23;46.93;101434.22;5052077;28;20052;-68
2023/09/11 00:39:06;;;;;;;0.00;0.00;;;;;;;32.14;47.78;101445.50;5052079;28;20079;-68
2023/09/11 00:41:31;;;;;;;0.00;0.00;;;;;;;32.25;47.19;101438.25;5051607;28;20049;-68
2023/09/11 00:43:56;;;;;;;0.00;0.00;;;;;;;32.05;47.53;101442.06;5052226;28;20079;-68
2023/09/11 00:46:22;;;;;;;0.00;0.00;;;;;;;32.06;46.95;101440.91;5070857;28;20044;-68
2023/09/11 00:48:52;;;;;;;0.00;0.00;;;;;;;31.98;47.58;101433.50;5071870;28;20553;-68
2023/09/11 00:51:17;;;;;;;0.00;0.00;;;;;;;31.80;47.51;101435.75;5053835;28;20036;-68
2023/09/11 00:53:43;;;;;;;0.00;0.00;;;;;;;31.78;47.75;101440.09;5071728;28;20067;-68
2023/09/11 00:56:08;;;;;;;0.00;0.00;;;;;;;31.94;47.26;101432.63;5072424;28;20523;-67
2023/09/11 00:58:34;;;;;;;0.00;0.00;;;;;;;31.66;47.53;101431.78;5072785;28;20594;-67
2023/09/11 01:01:00;;;;;;;0.00;0.00;;;;;;;31.77;47.62;101432.88;5078387;28;20123;-68
2023/09/11 01:03:26;;;;;;;0.00;0.00;;;;;;;31.62;47.91;101430.88;5071353;28;20099;-68
2023/09/11 01:05:55;;;;;;;0.00;0.00;;;;;;;31.14;49.29;101434.53;5071455;28;20048;-69
2023/09/11 01:08:20;;;;;;;0.00;0.00;;;;;;;31.55;48.09;101431.47;5071661;28;20154;-67
2023/09/11 01:10:46;;;;;;;0.00;0.00;;;;;;;31.44;48.25;101433.13;5053682;28;20024;-68
2023/09/11 01:13:11;;;;;;;0.00;0.00;;;;;;;31.41;48.45;101430.25;5071051;28;20029;-68
2023/09/11 01:16:10;;;;;;;0.00;0.00;;;;;;;31.58;48.07;101432.75;5071369;28;20665;-67
2023/09/11 01:19:11;;;;;;;0.00;0.00;;;;;;;31.50;48.38;101428.13;4989226;28;20042;-68
2023/09/11 01:21:55;;;;;;;0.00;0.00;;;;;;;31.85;47.41;101426.38;4950012;28;20058;-68
2023/09/11 01:24:39;;;;;;;0.00;0.00;;;;;;;31.62;47.34;101431.69;4959371;28;20126;-68
2023/09/11 01:27:23;;;;;;;0.00;0.00;;;;;;;31.73;47.75;101424.47;4969486;28;20042;-68
2023/09/11 01:29:51;;;;;;;0.00;0.00;;;;;;;31.45;47.79;101428.38;4969492;28;20491;-68
2023/09/11 01:32:17;;;;;;;0.00;0.00;;;;;;;31.52;48.33;101423.84;4960829;28;20043;-68
2023/09/11 01:34:43;;;;;;;0.00;0.00;;;;;;;31.42;47.92;101427.09;4950304;28;20083;-67
2023/09/11 01:37:08;;;;;;;0.00;0.00;;;;;;;31.27;48.46;101432.56;4950137;28;20036;-67
2023/09/11 01:39:33;;;;;;;0.00;0.00;;;;;;;31.24;48.16;101417.38;4950178;28;20412;-68
2023/09/11 01:42:04;;;;;;;0.00;0.00;;;;;;;31.12;48.71;101421.00;4949575;28;20046;-68
2023/09/11 01:44:41;;;;;;;0.00;0.00;;;;;;;31.51;47.99;101418.66;4949354;29;20033;-67
2023/09/11 01:47:09;;;;;;;0.00;0.00;;;;;;;31.39;48.06;101425.00;4950665;29;20529;-68
2023/09/11 01:49:37;;;;;;;0.00;0.00;;;;;;;31.46;48.31;101418.88;4950056;29;20176;-67
2023/09/11 01:52:04;;;;;;;0.00;0.00;;;;;;;31.51;48.18;101415.88;4950007;29;20071;-68
2023/09/11 01:54:30;;;;;;;0.00;0.00;;;;;;;31.22;48.32;101413.34;4952893;28;20098;-68
2023/09/11 01:56:56;;;;;;;0.00;0.00;;;;;;;31.73;47.49;101409.75;5003632;28;20038;-67
2023/09/11 01:59:23;;;;;;;0.00;0.00;;;;;;;31.86;46.43;101412.13;5047389;28;20049;-67
2023/09/11 02:01:48;;;;;;;0.00;0.00;;;;;;;31.98;46.32;101411.28;5070475;28;20057;-68
2023/09/11 02:04:14;;;;;;;0.00;0.00;;;;;;;31.28;48.23;101418.31;5070421;28;20052;-68
2023/09/11 02:06:39;;;;;;;0.00;0.00;;;;;;;31.23;48.23;101412.19;5059247;28;20083;-68
2023/09/11 02:09:04;;;;;;;0.00;0.00;;;;;;;31.33;48.19;101408.94;5050516;28;20037;-68
2023/09/11 02:11:30;;;;;;;0.00;0.00;;;;;;;31.27;48.55;101405.59;5070145;28;20032;-68
2023/09/11 02:13:55;;;;;;;0.00;0.00;;;;;;;31.16;48.20;101405.25;5070501;28;20090;-68
2023/09/11 02:16:21;;;;;;;0.00;0.00;;;;;;;31.25;48.06;101409.88;5064892;28;20571;-68
2023/09/11 02:18:46;;;;;;;0.00;0.00;;;;;;;31.20;48.08;101408.13;5063087;28;20037;-68
2023/09/11 02:21:11;;;;;;;0.00;0.00;;;;;;;31.08;49.57;101403.41;5055546;28;20037;-68
2023/09/11 02:23:37;;;;;;;0.00;0.00;;;;;;;31.02;49.26;101392.88;5050160;28;20409;-68
2023/09/11 02:26:02;;;;;;;0.00;0.00;;;;;;;31.03;49.39;101394.53;5050561;28;20021;-68
2023/09/11 02:28:28;;;;;;;0.00;0.00;;;;;;;30.97;49.69;101393.97;5049753;28;20044;-67
2023/09/11 02:30:53;;;;;;;0.00;0.00;;;;;;;31.40;48.07;101390.53;5049955;28;20043;-67
2023/09/11 02:33:19;;;;;;;0.00;0.00;;;;;;;31.11;49.05;101393.59;5049428;28;20040;-67
2023/09/11 02:35:44;;;;;;;0.00;0.00;;;;;;;31.17;48.80;101394.97;5049749;28;20037;-67
2023/09/11 02:38:10;;;;;;;0.00;0.00;;;;;;;31.05;49.46;101381.91;5050260;28;20540;-68
2023/09/11 02:40:37;;;;;;;0.00;0.00;;;;;;;31.11;49.51;101393.59;5049874;28;20085;-67
2023/09/11 02:43:02;;;;;;;0.00;0.00;;;;;;;30.93;49.47;101386.66;5049603;28;20497;-68
2023/09/11 02:45:28;;;;;;;0.00;0.00;;;;;;;31.13;49.13;101380.16;5049729;28;20060;-67
2023/09/11 02:47:53;;;;;;;0.00;0.00;;;;;;;30.99;49.26;101382.50;5049991;28;20025;-68
2023/09/11 02:50:18;;;;;;;0.00;0.00;;;;;;;30.77;50.32;101371.84;5049765;28;20025;-66
2023/09/11 02:52:44;;;;;;;0.00;0.00;;;;;;;31.04;49.41;101365.56;5050438;28;20377;-68
2023/09/11 02:55:11;;;;;;;0.00;0.00;;;;;;;30.79;49.51;101367.56;5049777;28;20069;-69
2023/09/11 02:57:37;;;;;;;0.00;0.00;;;;;;;30.53;51.10;101364.31;5049591;28;20393;-69
2023/09/11 03:00:06;;;;;;;0.00;0.00;;;;;;;30.58;50.84;101360.53;5052707;28;20048;-68
2023/09/11 03:02:31;;;;;;;0.00;0.00;;;;;;;30.64;50.44;101359.94;5069993;28;20508;-70
2023/09/11 03:04:57;;;;;;;0.00;0.00;;;;;;;30.64;50.86;101353.59;5070386;28;20024;-67
2023/09/11 03:07:23;;;;;;;0.00;0.00;;;;;;;30.35;50.92;101364.91;5069637;28;20051;-68
2023/09/11 03:09:49;;;;;;;0.00;0.00;;;;;;;30.71;50.18;101359.34;5069672;28;20044;-68
2023/09/11 03:12:14;;;;;;;0.00;0.00;;;;;;;30.72;49.94;101363.75;5069510;28;20032;-67
2023/09/11 03:14:40;;;;;;;0.00;0.00;;;;;;;30.65;50.59;101352.41;5084525;28;20374;-68
2023/09/11 03:17:05;;;;;;;0.00;0.00;;;;;;;30.72;49.89;101350.66;5077022;28;20056;-68
2023/09/11 03:19:34;;;;;;;0.00;0.00;;;;;;;30.54;50.78;101351.28;5069571;28;20048;-68
2023/09/11 03:21:59;;;;;;;0.00;0.00;;;;;;;30.62;50.46;101342.84;5069504;28;20473;-68
2023/09/11 03:24:24;;;;;;;0.00;0.00;;;;;;;30.74;49.64;101336.47;5069443;28;20040;-68
2023/09/11 03:26:50;;;;;;;0.00;0.00;;;;;;;30.53;50.27;101333.81;5069557;28;20365;-67
2023/09/11 03:29:15;;;;;;;0.00;0.00;;;;;;;30.85;49.39;101329.31;5069743;28;20040;-68
2023/09/11 03:31:41;;;;;;;0.00;0.00;;;;;;;31.28;48.01;101334.16;5069344;28;20040;-68
2023/09/11 03:34:06;;;;;;;0.00;0.00;;;;;;;31.09;48.52;101330.06;5069232;28;20040;-68
2023/09/11 03:36:32;;;;;;;0.00;0.00;;;;;;;31.07;48.45;101326.03;5069437;28;20033;-68
2023/09/11 03:38:57;;;;;;;0.00;0.00;;;;;;;30.76;49.59;101325.81;5069422;28;20029;-68
2023/09/11 03:41:22;;;;;;;0.00;0.00;;;;;;;30.87;48.88;101327.81;5069284;28;20031;-68
2023/09/11 03:43:48;;;;;;;0.00;0.00;;;;;;;30.87;49.49;101321.44;5069182;28;20537;-68
2023/09/11 03:46:14;;;;;;;0.00;0.00;;;;;;;30.86;48.86;101317.84;5085887;28;20090;-68
2023/09/11 03:48:40;;;;;;;0.00;0.00;;;;;;;31.02;48.52;101313.19;5073068;28;20045;-68
2023/09/11 03:51:06;;;;;;;0.00;0.00;;;;;;;30.96;48.74;101322.09;5073217;28;20032;-68
2023/09/11 03:53:31;;;;;;;0.00;0.00;;;;;;;30.81;49.21;101315.28;5072913;28;20028;-68
2023/09/11 03:55:56;;;;;;;0.00;0.00;;;;;;;30.74;49.43;101306.72;5071710;28;20070;-68
2023/09/11 03:58:22;;;;;;;0.00;0.00;;;;;;;30.93;48.78;101309.75;5054344;28;20613;-68
2023/09/11 04:00:47;;;;;;;0.00;0.00;;;;;;;30.86;48.83;101305.94;5070991;28;20060;-68
2023/09/11 04:03:13;;;;;;;0.00;0.00;;;;;;;31.00;48.19;101311.91;5068570;28;20559;-68
2023/09/11 04:05:39;;;;;;;0.00;0.00;;;;;;;30.87;48.85;101302.81;5071244;28;20046;-68
2023/09/11 04:08:04;;;;;;;0.00;0.00;;;;;;;30.97;48.11;101295.97;5076500;28;20025;-67
2023/09/11 04:10:30;;;;;;;0.00;0.00;;;;;;;30.78;49.14;101298.53;5068943;28;20511;-67
2023/09/11 04:12:55;;;;;;;0.00;0.00;;;;;;;30.88;48.40;101290.53;5083919;28;20032;-68
2023/09/11 04:15:21;;;;;;;0.00;0.00;;;;;;;30.74;49.18;101300.38;5071084;28;20044;-68
2023/09/11 04:17:46;;;;;;;0.00;0.00;;;;;;;30.81;49.17;101297.81;5070609;28;20039;-68
2023/09/11 04:20:11;;;;;;;0.05;0.00;;;;;;;30.64;49.58;101301.69;5071788;28;20029;-68
2023/09/11 04:22:37;;;;;;;0.00;0.00;;;;;;;30.56;49.37;101299.00;5071476;28;20439;-68
2023/09/11 04:25:03;;;;;;;0.00;0.00;;;;;;;30.61;49.39;101299.59;5071555;28;20041;-67
2023/09/11 04:27:28;;;;;;;0.00;0.00;;;;;;;30.63;49.60;101294.50;5062836;28;20083;-68
2023/09/11 04:29:54;;;;;;;0.00;0.00;;;;;;;30.79;49.02;101295.41;5071434;28;20032;-68
2023/09/11 04:32:20;;;;;;;0.00;0.00;;;;;;;30.31;50.46;101287.09;5071119;28;20449;-67
2023/09/11 04:34:46;;;;;;;0.00;0.00;;;;;;;30.72;49.42;101292.38;5072212;28;20028;-67
2023/09/11 04:37:12;;;;;;;0.00;0.00;;;;;;;30.54;48.97;101284.69;5072077;28;20040;-67
2023/09/11 04:39:37;;;;;;;0.00;0.00;;;;;;;30.28;50.67;101287.81;5072228;28;20487;-67
2023/09/11 04:42:03;;;;;;;0.00;0.00;;;;;;;30.40;49.62;101287.81;5053503;28;20535;-67
2023/09/11 04:44:28;;;;;;;0.00;0.00;;;;;;;30.56;49.48;101285.97;5063047;28;20029;-67
2023/09/11 04:46:53;;;;;;;0.00;0.00;;;;;;;30.42;49.54;101287.47;5072024;28;20028;-67
2023/09/11 04:49:19;;;;;;;0.00;0.00;;;;;;;30.01;50.63;101285.69;5071819;28;20055;-68
2023/09/11 04:51:44;;;;;;;0.00;0.00;;;;;;;29.87;50.58;101287.97;5071432;28;20090;-68
2023/09/11 04:54:09;;;;;;;0.00;0.00;;;;;;;29.87;51.76;101277.72;5071153;28;20032;-68
2023/09/11 04:56:35;;;;;;;0.00;0.00;;;;;;;30.03;50.75;101284.19;5071339;28;20024;-69
2023/09/11 04:59:00;;;;;;;0.00;0.00;;;;;;;29.92;51.16;101273.88;5071382;28;20032;-67
2023/09/11 05:01:26;;;;;;;0.00;0.00;;;;;;;30.14;50.65;101273.44;5070675;28;20067;-67
2023/09/11 05:03:51;;;;;;;0.00;0.00;;;;;;;29.94;51.27;101274.34;5070717;28;20024;-68
2023/09/11 05:06:16;;;;;;;0.00;0.00;;;;;;;29.98;50.82;101266.97;5070686;28;20040;-67
2023/09/11 05:08:42;;;;;;;0.00;0.00;;;;;;;30.04;50.69;101269.16;5052607;28;20400;-67
2023/09/11 05:11:08;;;;;;;0.00;0.00;;;;;;;30.13;51.18;101267.09;5071729;28;20036;-67
2023/09/11 05:13:33;;;;;;;0.00;0.00;;;;;;;30.22;50.64;101265.03;5070559;28;20033;-67
2023/09/11 05:15:59;;;;;;;0.00;0.00;;;;;;;30.06;51.33;101266.88;5072576;28;20591;-68
2023/09/11 05:18:24;;;;;;;0.00;0.00;;;;;;;30.37;50.25;101271.06;5070662;28;20032;-67
2023/09/11 05:20:50;;;;;;;0.00;0.00;;;;;;;30.31;50.53;101274.06;5070886;28;20037;-67
2023/09/11 05:23:17;;;;;;;0.00;0.00;;;;;;;30.40;50.30;101265.63;5071263;28;20032;-69
2023/09/11 05:25:42;;;;;;;0.00;0.00;;;;;;;30.33;50.50;101274.53;5070892;28;20032;-66
2023/09/11 05:28:08;;;;;;;0.00;0.00;;;;;;;30.50;49.55;101281.00;5072907;28;20101;-68
2023/09/11 05:30:33;;;;;;;0.00;0.00;;;;;;;30.33;50.02;101273.69;5074756;28;20062;-68
2023/09/11 05:32:59;;;;;;;0.00;0.00;;;;;;;30.47;49.67;101276.16;5082341;28;20162;-67
2023/09/11 05:35:24;;;;;;;0.00;0.00;;;;;;;30.43;50.22;101278.78;5081118;28;20092;-67
2023/09/11 05:37:49;;;;;;;0.00;0.00;;;;;;;30.50;49.95;101267.94;5080023;28;20024;-68
2023/09/11 05:40:15;;;;;;;0.00;0.00;;;;;;;30.58;50.32;101277.28;5080152;28;20028;-68
2023/09/11 05:42:40;;;;;;;0.00;0.00;;;;;;;30.62;49.39;101276.25;5074299;28;20036;-68
2023/09/11 05:45:06;;;;;;;0.00;0.00;;;;;;;30.52;50.27;101273.94;5079091;28;20053;-68
2023/09/11 05:47:32;;;;;;;0.00;0.00;;;;;;;30.72;49.42;101272.19;5079913;28;20044;-68
2023/09/11 05:50:00;;;;;;;0.00;0.00;;;;;;;30.65;49.71;101272.75;5070806;28;20029;-67
2023/09/11 05:52:29;;;;;;;0.00;0.00;;;;;;;30.88;48.87;101279.44;5070623;28;20037;-67
2023/09/11 05:54:55;;;;;;;0.00;0.00;;;;;;;30.63;49.76;101268.69;5070288;28;20076;-69
2023/09/11 05:57:21;;;;;;;0.00;0.00;;;;;;;30.94;48.95;101277.22;5070424;28;20052;-67
2023/09/11 05:59:47;;;;;;;0.00;0.00;;;;;;;30.93;49.10;101278.38;5070333;28;20037;-67
2023/09/11 06:02:12;;;;;;;0.00;0.00;;;;;;;30.89;49.27;101269.97;5070450;28;20672;-69
2023/09/11 06:04:37;;;;;;;0.00;0.00;;;;;;;30.92;48.93;101269.25;5079180;28;20039;-69
2023/09/11 06:07:03;;;;;;;0.00;0.00;;;;;;;30.77;50.28;101280.25;5090509;28;20094;-68
2023/09/11 06:09:29;;;;;;;0.00;0.00;;;;;;;31.08;48.95;101283.19;5090135;28;20130;-67
2023/09/11 06:11:54;;;;;;;0.00;0.00;;;;;;;30.96;49.60;101289.59;5090774;28;20046;-67
2023/09/11 06:14:20;;;;;;;0.00;0.00;;;;;;;31.11;49.06;101285.28;5074035;28;20445;-66
2023/09/11 06:16:45;;;;;;;0.00;0.00;;;;;;;31.06;49.46;101279.97;5070504;28;20036;-68
2023/09/11 06:19:11;;;;;;;0.00;0.00;;;;;;;31.19;49.34;101284.34;5070206;28;20032;-68
2023/09/11 06:21:36;;;;;;;0.00;0.00;;;;;;;30.99;49.72;101288.91;5070132;28;20098;-68
2023/09/11 06:24:04;;;;;;;0.00;0.00;;;;;;;31.10;49.70;101292.81;5069906;28;20059;-69
2023/09/11 06:26:29;;;;;;;0.00;0.00;;;;;;;31.38;48.69;101292.03;5070124;28;20052;-67
2023/09/11 06:28:55;;;;;;;0.00;0.00;;;;;;;31.15;49.39;101280.63;5070309;28;20392;-68
2023/09/11 06:31:21;;;;;;;0.00;0.00;;;;;;;31.22;49.71;101282.78;5069853;28;20044;-67
2023/09/11 06:33:46;;;;;;;0.00;0.00;;;;;;;31.39;49.21;101283.31;5069903;28;20043;-67
2023/09/11 06:36:13;;;;;;;0.00;0.00;;;;;;;31.50;48.91;101289.19;5069793;28;20025;-67
2023/09/11 06:38:38;;;;;;;0.00;0.00;;;;;;;31.48;48.71;101280.41;5070078;28;20040;-68
2023/09/11 06:41:03;;;;;;;0.00;0.00;;;;;;;31.58;48.41;101277.09;5070282;28;20464;-67
2023/09/11 06:43:29;;;;;;;0.00;0.00;;;;;;;31.45;49.46;101270.00;5069515;28;20033;-69
2023/09/11 06:45:54;;;;;;;0.00;0.00;;;;;;;31.60;48.31;101283.94;5069785;28;20037;-68
2023/09/11 06:48:21;;;;;;;0.00;0.00;;;;;;;31.66;48.59;101274.19;5069942;28;20045;-66
2023/09/11 06:50:46;;;;;;;0.00;0.00;;;;;;;31.53;49.28;101269.03;5051928;28;20029;-67
2023/09/11 06:53:12;;;;;;;0.00;0.00;;;;;;;31.64;48.27;101268.16;5069900;28;20688;-67
2023/09/11 06:55:44;;;;;;;0.00;0.00;;;;;;;31.87;48.49;101265.56;5069770;28;20055;-67
2023/09/11 06:58:10;;;;;;;0.00;0.00;;;;;;;31.92;48.20;101273.69;5069510;28;20089;-67
2023/09/11 07:00:36;;;;;;;0.00;0.00;;;;;;;32.04;48.05;101264.44;5076104;28;20492;-67
2023/09/11 07:03:01;;;;;;;0.00;0.00;;;;;;;32.21;47.83;101269.63;5089293;28;20055;-67
2023/09/11 07:05:27;;;;;;;0.00;0.00;;;;;;;32.22;47.87;101274.00;5089576;28;20579;-67
2023/09/11 07:07:53;;;;;;;0.00;0.00;;;;;;;32.18;48.27;101273.16;5090302;28;20016;-68
2023/09/11 07:10:18;;;;;;;0.00;0.00;;;;;;;32.08;48.39;101271.69;5076044;28;20044;-67
2023/09/11 07:12:44;;;;;;;0.00;0.00;;;;;;;32.11;48.67;101272.97;5069597;28;20121;-68
2023/09/11 07:15:10;;;;;;;0.00;0.00;;;;;;;32.16;48.32;101273.50;5069443;28;20033;-67
2023/09/11 07:17:35;;;;;;;0.00;0.00;;;;;;;31.99;48.91;101277.47;5069565;28;20110;-68
2023/09/11 07:20:04;;;;;;;0.00;0.00;;;;;;;32.25;48.53;101274.13;5052111;28;20469;-69
2023/09/11 07:22:29;;;;;;;0.00;0.00;;;;;;;32.08;48.63;101284.81;5073459;28;20029;-68
2023/09/11 07:24:55;;;;;;;0.00;0.00;;;;;;;31.75;49.42;101283.13;5073478;28;20550;-68
2023/09/11 07:27:20;;;;;;;0.00;0.00;;;;;;;31.99;49.19;101287.75;5073340;28;20036;-68
2023/09/11 07:29:46;;;;;;;0.00;0.00;;;;;;;32.09;48.98;101278.88;5073056;28;20040;-68
2023/09/11 07:32:11;;;;;;;0.00;0.00;;;;;;;32.19;49.00;101289.47;5073773;28;20447;-68
2023/09/11 07:34:37;;;;;;;0.00;0.00;;;;;;;32.23;49.26;101290.38;5072986;28;20428;-67
2023/09/11 07:37:03;;;;;;;0.00;0.00;;;;;;;32.26;49.09;101289.63;5073055;28;20086;-68
2023/09/11 07:39:29;;;;;;;0.00;0.00;;;;;;;32.38;48.54;101283.16;5064813;28;20120;-68
2023/09/11 07:41:54;;;;;;;0.00;0.00;;;;;;;32.08;49.99;101298.72;5073133;28;20107;-67
2023/09/11 07:44:19;;;;;;;0.00;0.00;;;;;;;31.89;49.90;101300.19;5069029;28;20029;-67
2023/09/11 07:46:45;;;;;;;0.00;0.00;;;;;;;32.22;49.42;101304.63;5093788;28;20055;-68
2023/09/11 07:49:10;;;;;;;0.00;0.00;;;;;;;32.56;48.32;101289.97;5093158;28;20044;-68
2023/09/11 07:51:35;;;;;;;0.00;0.00;;;;;;;32.77;48.43;101299.63;5074793;28;20613;-69
2023/09/11 07:54:01;;;;;;;0.00;0.00;;;;;;;32.62;49.08;101294.09;5075203;28;20037;-68
2023/09/11 07:56:26;;;;;;;0.00;0.00;;;;;;;32.73;48.08;101289.56;5075845;28;20024;-67
2023/09/11 07:58:53;;;;;;;0.00;0.00;;;;;;;32.81;47.80;101294.94;5093637;28;20031;-67
2023/09/11 08:01:19;;;;;;;0.00;0.00;;;;;;;32.41;48.32;101286.00;5092635;28;20051;-68
2023/09/11 08:03:47;;;;;;;0.00;0.00;;;;;;;32.83;47.17;101289.81;5092948;28;20039;-67
2023/09/11 08:06:13;;;;;;;0.00;0.00;;;;;;;33.15;46.93;101292.50;5081656;28;20035;-68
2023/09/11 08:08:38;;;;;;;0.00;0.00;;;;;;;33.13;47.12;101292.06;5072501;28;20045;-68
2023/09/11 08:11:15;;;;;;;0.00;0.00;;;;;;;33.42;46.06;101291.47;5073252;28;20025;-67
2023/09/11 08:13:46;;;;;;;0.00;0.00;;;;;;;33.11;46.60;101297.19;5072265;28;20040;-68
2023/09/11 08:16:12;;;;;;;0.00;0.00;;;;;;;33.24;46.24;101293.91;5072336;28;20082;-68
2023/09/11 08:18:37;;;;;;;0.00;0.00;;;;;;;33.49;45.84;101298.00;5072442;28;20443;-68
2023/09/11 08:21:02;;;;;;;0.00;0.00;;;;;;;33.44;45.88;101295.50;5071807;28;20507;-68
2023/09/11 08:23:28;;;;;;;0.00;0.00;;;;;;;33.75;45.49;101286.16;5054277;28;20036;-68
2023/09/11 08:25:57;;;;;;;0.00;0.00;;;;;;;33.86;45.19;101289.97;5072677;28;20025;-67
2023/09/11 08:28:23;;;;;;;0.00;0.00;;;;;;;33.88;44.58;101289.56;5071845;28;20033;-67
2023/09/11 08:30:50;;;;;;;0.00;0.00;;;;;;;33.92;44.31;101294.06;5072108;28;20861;-68
2023/09/11 08:33:15;;;;;;;0.00;0.00;;;;;;;33.83;44.42;101293.47;5071641;28;20059;-68
2023/09/11 08:35:41;;;;;;;0.00;0.00;;;;;;;34.12;43.89;101305.97;5072256;28;20520;-68
2023/09/11 08:38:06;;;;;;;0.00;0.00;;;;;;;34.29;43.67;101302.66;5072423;28;20032;-67
2023/09/11 08:40:31;;;;;;;0.00;0.00;;;;;;;34.14;42.84;101309.19;5072068;28;20055;-67
2023/09/11 08:42:58;;;;;;;0.00;0.00;;;;;;;33.95;42.97;101307.25;5071880;28;20036;-67
2023/09/11 08:45:25;;;;;;;0.00;0.00;;;;;;;34.40;41.83;101298.88;5082643;28;20032;-67
2023/09/11 08:47:56;;;;;;;0.00;0.00;;;;;;;34.64;41.20;101296.84;5106982;28;20040;-67
2023/09/11 08:50:30;;;;;;;0.00;0.00;;;;;;;33.72;42.13;101300.03;5073770;28;20027;-67
2023/09/11 08:52:58;;;;;;;0.00;0.00;;;;;;;34.75;40.31;101295.03;5077397;28;20115;-68
2023/09/11 08:55:24;;;;;;;0.00;0.00;;;;;;;34.61;41.02;101304.00;5091646;28;20047;-69
2023/09/11 08:57:50;;;;;;;0.00;0.00;;;;;;;34.59;40.48;101292.41;5091700;28;20036;-67
2023/09/11 09:00:17;;;;;;;0.00;0.00;;;;;;;35.12;38.94;101299.56;5073665;28;20024;-68
2023/09/11 09:02:43;;;;;;;0.00;0.00;;;;;;;34.48;40.42;101297.00;5078611;28;20127;-68
2023/09/11 09:05:10;;;;;;;0.00;0.00;;;;;;;34.31;40.02;101301.13;5071880;28;20031;-67
2023/09/11 09:07:38;;;;;;;0.00;0.00;;;;;;;33.52;41.10;101300.06;5071343;28;20183;-68
2023/09/11 09:10:04;;;;;;;0.00;0.00;;;;;;;34.35;38.85;101299.19;5071260;28;20033;-67
2023/09/11 09:12:31;;;;;;;0.00;0.00;;;;;;;34.14;39.88;101296.03;5071232;28;20043;-67
2023/09/11 09:14:57;;;;;;;0.00;0.00;;;;;;;34.74;38.48;101302.59;5071210;28;20033;-68
2023/09/11 09:17:22;;;;;;;0.00;0.00;;;;;;;35.22;37.13;101293.28;5053021;28;20025;-67
2023/09/11 09:19:48;;;;;;;0.00;0.00;;;;;;;34.91;37.87;101296.44;5071660;28;20052;-67
2023/09/11 09:22:13;;;;;;;0.00;0.00;;;;;;;34.83;38.21;101288.38;5071058;28;20075;-67
2023/09/11 09:24:52;;;;;;;0.00;0.00;;;;;;;35.03;37.53;101287.84;5071304;28;20025;-68
2023/09/11 09:27:18;;;;;;;0.00;0.00;;;;;;;35.38;36.46;101291.06;5071030;28;20106;-68
2023/09/11 09:29:44;;;;;;;0.00;0.00;;;;;;;35.30;37.83;101297.00;5071018;28;20033;-67
2023/09/11 09:32:10;;;;;;;0.00;0.00;;;;;;;34.89;37.52;101300.81;5071328;28;20024;-68
2023/09/11 09:34:38;;;;;;;0.00;0.00;;;;;;;34.17;39.34;101302.88;5070637;28;20045;-68
2023/09/11 09:37:03;;;;;;;0.00;0.00;;;;;;;34.26;39.69;101315.38;5070750;28;20029;-68
2023/09/11 09:39:29;;;;;;;0.00;0.00;;;;;;;34.18;40.45;101319.22;5070857;28;20055;-68
2023/09/11 09:41:58;;;;;;;0.00;0.00;;;;;;;33.49;42.54;101313.94;5071005;28;20067;-68
2023/09/11 09:44:34;;;;;;;0.00;0.00;;;;;;;33.96;42.06;101319.22;5069794;28;20490;-68
2023/09/11 09:47:28;;;;;;;0.00;0.00;;;;;;;34.71;40.21;101314.53;5051321;28;20062;-67
2023/09/11 09:49:56;;;;;;;0.00;0.00;;;;;;;33.75;41.46;101316.81;4980111;28;20383;-67
2023/09/11 09:52:25;;;;;;;0.00;0.00;;;;;;;33.23;42.46;101319.34;4988659;28;20125;-67
2023/09/11 09:54:56;;;;;;;0.00;0.00;;;;;;;34.78;38.94;101306.25;4988476;28;20046;-69
2023/09/11 09:57:24;;;;;;;0.00;0.00;;;;;;;34.62;39.75;101293.63;4988460;28;20510;-68
2023/09/11 09:59:53;;;;;;;0.00;0.00;;;;;;;34.83;39.61;101311.50;4988077;28;20118;-68
2023/09/11 10:02:23;;;;;;;0.00;0.00;;;;;;;34.94;38.92;101303.28;4988047;28;20058;-67
2023/09/11 10:04:54;;;;;;;0.00;0.00;;;;;;;34.37;41.15;101301.59;4988531;28;20109;-68
2023/09/11 10:07:42;;;;;;;0.00;0.00;;;;;;;35.53;38.53;101300.47;4955164;28;20570;-67
2023/09/11 10:10:26;;;;;;;0.00;0.00;;;;;;;35.41;38.74;101297.09;5003709;28;20045;-67
2023/09/11 10:13:04;;;;;;;0.00;0.00;;;;;;;35.73;37.99;101293.50;5007899;28;20878;-67
2023/09/11 10:15:31;;;;;;;0.00;0.00;;;;;;;33.67;42.22;101304.75;5002961;28;20356;-68
2023/09/11 10:17:57;;;;;;;0.00;0.00;;;;;;;34.71;40.60;101295.00;4971387;28;20042;-66
2023/09/11 10:20:24;;;;;;;0.00;0.00;;;;;;;35.15;39.70;101303.56;4987464;28;20095;-68
2023/09/11 10:22:54;;;;;;;0.00;0.00;;;;;;;35.13;39.19;101294.75;4987663;28;20485;-67
2023/09/11 10:25:21;;;;;;;0.00;0.00;;;;;;;36.12;37.68;101285.47;4994050;28;20040;-69
2023/09/11 10:27:49;;;;;;;0.00;0.00;;;;;;;35.89;37.78;101277.25;5069028;28;20145;-69
2023/09/11 10:30:20;;;;;;;0.00;0.00;;;;;;;36.05;37.32;101279.84;5050790;28;20566;-68
2023/09/11 10:32:54;;;;;;;0.00;0.00;;;;;;;36.26;37.71;101279.19;5050832;28;20082;-67
2023/09/11 10:35:20;;;;;;;0.00;0.00;;;;;;;36.18;37.21;101278.34;5069055;28;20030;-67
2023/09/11 10:37:46;;;;;;;0.00;0.00;;;;;;;36.26;37.55;101282.78;5069224;28;20492;-68
2023/09/11 10:40:15;;;;;;;0.00;0.00;;;;;;;35.92;37.71;101270.09;5069073;28;20071;-68
2023/09/11 10:42:41;;;;;;;0.00;0.00;;;;;;;35.64;38.61;101270.63;5068875;28;20039;-68
2023/09/11 10:45:27;;;;;;;0.00;0.00;;;;;;;36.03;37.46;101271.03;5068579;28;20470;-68
2023/09/11 10:47:52;;;;;;;0.00;0.00;;;;;;;34.52;41.07;101275.53;5050737;28;20637;-68
2023/09/11 10:50:17;;;;;;;0.00;0.00;;;;;;;35.70;38.50;101268.25;5069299;28;20032;-67
2023/09/11 10:52:45;;;;;;;0.00;0.00;;;;;;;36.81;35.47;101281.59;5069210;28;20485;-67
2023/09/11 10:55:10;;;;;;;0.00;0.00;;;;;;;36.67;36.19;101278.69;5072632;28;20435;-67
2023/09/11 10:57:36;;;;;;;0.00;0.00;;;;;;;36.76;36.15;101270.72;5075871;28;20041;-67
2023/09/11 11:00:05;;;;;;;0.00;0.00;;;;;;;36.43;36.74;101276.53;5076193;28;20121;-67
2023/09/11 11:02:30;;;;;;;0.00;0.00;;;;;;;37.03;35.71;101277.69;5057975;28;20402;-68
2023/09/11 11:04:56;;;;;;;0.00;0.00;;;;;;;35.62;37.33;101275.78;5076485;28;20028;-68
2023/09/11 11:07:23;;;;;;;0.00;0.00;;;;;;;35.72;38.20;101285.47;5076042;28;20041;-68
2023/09/11 11:09:49;;;;;;;0.00;0.00;;;;;;;36.92;35.70;101285.25;5076054;28;20037;-68
2023/09/11 11:12:30;;;;;;;0.00;0.00;;;;;;;38.16;34.25;101285.59;5076025;28;20114;-68
2023/09/11 11:15:25;;;;;;;0.00;0.00;;;;;;;38.47;33.45;101282.78;5075942;28;20029;-68
2023/09/11 11:18:11;;;;;;;0.00;0.00;;;;;;;38.58;33.09;101286.38;5076317;28;20032;-68
2023/09/11 11:20:57;;;;;;;0.00;0.00;;;;;;;35.62;38.13;101277.81;5076177;28;20027;-69
2023/09/11 11:23:25;;;;;;;0.00;0.00;;;;;;;37.24;34.03;101270.56;5075871;28;20036;-68